Wellington, FL

4:24 PM EDT on July 01, 2015 (GMT -0400)
Pinewood West | | Change Station
CLOSE
Current Station
Personal Weather Station
Location: Wellington, FL
Elevation: 43 ft
Nearby Weather Stations

Elev 43 ft 26.68 °N, 80.25 °W | Updated 45 seconds ago

Overcast
Overcast
74.8 °F
Feels Like 77 °F
N
0.0
Wind Variable Wind from ESE
Gusts 0.0 mph

Today
High -- | Low -- °F
--% Chance of Precip.
Yesterday
High -- | Low -- °F
Precip. -- in
6:31 AM 8:18 PM
Full, 100% visible
Pressure 30.14 in
Visibility 10.0 miles
Clouds Scattered Clouds 2700 ft
Scattered Clouds 4000 ft
Mostly Cloudy 21000 ft
Heat Index 77 °F
Dew Point 40 °F
Humidity 29%
Rainfall in
Snow Depth Not available.
UV 1.0 out of 12
Pollen 3.80 out of 12
Air Quality Not available.
Flu Activity Not available.
METAR KPBI 011953Z 16006KT 10SM TS SCT027CB SCT040 BKN210 30/24 A3014 RMK AO2 SLP204 OCNL LTGICCG SW-NW TS SW-NW MOV NW T03000239

More Conditions Fewer Conditions

Pressure 30.14 in
Visibility 10.0 miles
Clouds Scattered Clouds 2700 ft
Scattered Clouds 4000 ft
Mostly Cloudy 21000 ft
Heat Index 77 °F
Dew Point 40 °F
Humidity 29%
Rainfall in
Snow Depth Not available.
UV 1.0 out of 12
Pollen 3.80 out of 12
Air Quality Not available.
Flu Activity Not available.
METAR KPBI 011953Z 16006KT 10SM TS SCT027CB SCT040 BKN210 30/24 A3014 RMK AO2 SLP204 OCNL LTGICCG SW-NW TS SW-NW MOV NW T03000239

More Conditions Fewer Conditions

Nowcast | as of 3:14 PM EDT on July 1, 2015

Scattered thunderstorms will continue to develop across interior South Florida to the Gulf Coast. The thunderstorms will have the potential of producing strong wind gusts...so stay tuned as special weather statements will be issued on the stronger thunderstorms which develop. Frequent lightning will also be a concern with the thunderstorms. Mariners on Lake Okeechobee as well as the Gulf waters should be alert for rapidly changing conditions. Lightning can strike over 10 miles away from a thunderstorm.

×

10-Day Weather Forecast

×

Almanac

Astronomy

Jul. 01, 2015 Rise Set
Actual Time
Civil Twilight
Nautical Twilight
Astronomical Twilight
Moon
Length of Visible Light
Length of Day
Tomorrow will be .
, % of the Moon is Illuminated

Today's Extremes

State Highs State Lows

Community

WunderPhotos

Upload Photos

1,834,275 photos uploaded!

WunderBlogs® & News

Nearby

Air Quality

  Air Quality AQ Index Pollutant
Not available.

Snow Depth

Station Depth Elevation

Earthquake Activity

City Distance Mag. Time & Date
Minimum magnitude displayed is 2.5.

Coastal Water Temperatures

Place Temperature

Stations

Nearby Weather Stations

Station Location Temp. Windchill Dew Point Humidity Wind Precip. Elev Updated Type